createdAt,value
2017-09-06T00:00:55.716Z,1.80
2017-09-06T00:01:52.993Z,1.70
2017-09-06T00:02:50.329Z,1.80
2017-09-06T00:03:47.615Z,1.60
2017-09-06T00:04:44.878Z,1.70
2017-09-06T00:05:42.129Z,1.90
2017-09-06T00:06:39.400Z,1.80
2017-09-06T00:07:36.721Z,1.40
2017-09-06T00:08:33.966Z,1.80
2017-09-06T00:09:31.223Z,1.60
2017-09-06T00:10:28.489Z,1.70
2017-09-06T00:11:25.782Z,1.80
2017-09-06T00:12:23.047Z,1.80
2017-09-06T00:13:20.330Z,1.80
2017-09-06T00:14:17.578Z,1.60
2017-09-06T00:15:14.833Z,1.80
2017-09-06T00:16:12.085Z,1.70
2017-09-06T00:17:09.390Z,1.70
2017-09-06T00:18:06.634Z,1.60
2017-09-06T00:19:03.920Z,1.80
2017-09-06T00:20:01.152Z,1.90
2017-09-06T00:20:58.405Z,1.80
2017-09-06T00:21:55.625Z,1.70
2017-09-06T00:22:52.910Z,2.00
2017-09-06T00:23:50.153Z,1.90
2017-09-06T00:24:47.411Z,1.50
2017-09-06T00:25:44.663Z,1.90
2017-09-06T00:26:41.918Z,1.50
2017-09-06T00:27:39.202Z,1.90
2017-09-06T00:28:36.486Z,1.90
2017-09-06T00:29:33.716Z,1.90
2017-09-06T00:30:31.017Z,2.10
2017-09-06T00:31:28.293Z,2.00
2017-09-06T00:32:25.562Z,1.80
2017-09-06T00:33:22.837Z,1.90
2017-09-06T00:34:20.107Z,2.00
2017-09-06T00:35:17.357Z,1.50
2017-09-06T00:36:14.617Z,1.70
2017-09-06T00:37:11.847Z,1.70
2017-09-06T00:38:09.117Z,1.70
2017-09-06T00:39:06.352Z,1.80
2017-09-06T00:40:03.647Z,1.80
2017-09-06T00:41:00.898Z,1.80
2017-09-06T00:41:58.160Z,1.60
2017-09-06T00:42:55.455Z,1.80
2017-09-06T00:43:52.826Z,2.00
2017-09-06T00:44:50.069Z,1.50
2017-09-06T00:45:47.329Z,1.60
2017-09-06T00:46:44.590Z,1.70
2017-09-06T00:47:41.841Z,1.90
2017-09-06T00:48:39.118Z,2.00
2017-09-06T00:49:36.373Z,1.80
2017-09-06T00:50:33.597Z,2.10
2017-09-06T00:51:30.865Z,1.80
2017-09-06T00:52:28.096Z,2.00
2017-09-06T00:53:25.393Z,1.60
2017-09-06T00:54:22.653Z,2.00
2017-09-06T00:55:19.933Z,1.90
2017-09-06T00:56:17.196Z,1.70
2017-09-06T00:57:14.470Z,1.90
2017-09-06T00:58:11.756Z,1.80
2017-09-06T00:59:09.062Z,1.60
2017-09-06T01:00:06.324Z,1.70
2017-09-06T01:01:03.571Z,1.60
2017-09-06T01:02:00.813Z,1.60
2017-09-06T01:02:58.079Z,1.50
2017-09-06T01:03:55.338Z,1.60
2017-09-06T01:04:52.686Z,1.70
2017-09-06T01:05:49.938Z,1.50
2017-09-06T01:06:48.841Z,2.00
2017-09-06T01:07:46.109Z,1.70
2017-09-06T01:08:43.425Z,1.70
2017-09-06T01:09:40.693Z,2.30
2017-09-06T01:10:37.954Z,1.70
2017-09-06T01:11:35.182Z,1.80
2017-09-06T01:12:32.449Z,2.10
2017-09-06T01:13:29.718Z,1.90
2017-09-06T01:14:27.100Z,2.00
2017-09-06T01:15:24.338Z,1.90
2017-09-06T01:16:21.603Z,2.10
2017-09-06T01:17:18.825Z,1.60
2017-09-06T01:18:16.106Z,1.90
2017-09-06T01:19:13.366Z,2.00
2017-09-06T01:20:10.657Z,2.00
2017-09-06T01:21:07.892Z,1.80
2017-09-06T01:22:05.168Z,2.00
2017-09-06T01:23:02.412Z,2.60
2017-09-06T01:23:59.721Z,2.00
2017-09-06T01:24:56.950Z,1.70
2017-09-06T01:25:54.218Z,1.60
2017-09-06T01:26:51.474Z,1.90
2017-09-06T01:27:48.737Z,2.20
2017-09-06T01:28:45.991Z,1.40
2017-09-06T01:29:43.307Z,1.70
2017-09-06T01:30:40.542Z,1.70
2017-09-06T01:31:37.806Z,1.80
2017-09-06T01:32:35.034Z,1.90
2017-09-06T01:33:32.342Z,2.10
2017-09-06T01:34:29.686Z,2.20
2017-09-06T01:35:27.014Z,2.00
2017-09-06T01:36:24.280Z,1.60
2017-09-06T01:37:21.577Z,1.90
2017-09-06T01:38:18.831Z,2.00
2017-09-06T01:39:16.091Z,1.70
2017-09-06T01:40:13.374Z,2.20
2017-09-06T01:41:10.673Z,2.20
2017-09-06T01:42:07.920Z,2.00
2017-09-06T01:43:05.179Z,1.70
2017-09-06T01:44:02.442Z,1.60
2017-09-06T01:44:59.735Z,1.80
2017-09-06T01:45:56.977Z,2.10
2017-09-06T01:46:54.249Z,2.20
2017-09-06T01:47:51.494Z,2.00
2017-09-06T01:48:48.787Z,2.00
2017-09-06T01:49:46.046Z,2.00
2017-09-06T01:50:43.334Z,1.70
2017-09-06T01:51:40.607Z,1.80
2017-09-06T01:52:37.873Z,1.90
2017-09-06T01:53:35.105Z,2.00
2017-09-06T01:54:32.397Z,2.20
2017-09-06T01:55:29.665Z,1.90
2017-09-06T01:56:27.004Z,2.10
2017-09-06T01:57:24.260Z,1.90
2017-09-06T01:58:21.529Z,1.50
2017-09-06T01:59:18.801Z,1.90
2017-09-06T02:00:16.073Z,1.80
2017-09-06T02:01:13.309Z,1.80
2017-09-06T02:02:10.567Z,1.80
2017-09-06T02:03:07.845Z,1.90
2017-09-06T02:04:05.125Z,1.70
2017-09-06T02:05:02.374Z,2.10
2017-09-06T02:05:59.670Z,2.20
2017-09-06T02:06:56.969Z,1.90
2017-09-06T02:07:54.251Z,2.40
2017-09-06T02:08:51.505Z,2.10
2017-09-06T02:09:48.842Z,2.00
2017-09-06T02:10:46.102Z,2.40
2017-09-06T02:11:43.360Z,1.90
2017-09-06T02:12:40.627Z,1.90
2017-09-06T02:13:37.879Z,1.80
2017-09-06T02:14:35.129Z,2.00
2017-09-06T02:15:32.442Z,2.00
2017-09-06T02:16:29.704Z,2.20
2017-09-06T02:17:26.986Z,2.00
2017-09-06T02:18:24.244Z,2.10
2017-09-06T02:19:21.514Z,2.00
2017-09-06T02:20:18.758Z,2.20
2017-09-06T02:21:16.050Z,2.30
2017-09-06T02:22:13.789Z,2.30
2017-09-06T02:23:11.064Z,2.20
2017-09-06T02:24:08.310Z,1.90
2017-09-06T02:25:06.163Z,2.10
2017-09-06T02:26:03.458Z,2.00
2017-09-06T02:27:00.770Z,1.70
2017-09-06T02:27:58.025Z,1.80
2017-09-06T02:28:55.308Z,2.20
2017-09-06T02:29:52.575Z,2.40
2017-09-06T02:30:49.855Z,2.50
2017-09-06T02:31:47.121Z,2.10
2017-09-06T02:32:44.395Z,2.30
2017-09-06T02:33:41.650Z,2.70
2017-09-06T02:34:38.920Z,2.30
2017-09-06T02:35:36.234Z,2.10
2017-09-06T02:36:33.550Z,2.20
2017-09-06T02:37:30.819Z,2.50
2017-09-06T02:38:28.086Z,2.50
2017-09-06T02:39:25.342Z,2.10
2017-09-06T02:40:22.614Z,1.90
2017-09-06T02:41:19.876Z,1.80
2017-09-06T02:42:17.152Z,2.20
2017-09-06T02:43:14.400Z,2.30
2017-09-06T02:44:11.649Z,2.10
2017-09-06T02:45:08.893Z,2.00
2017-09-06T02:46:06.158Z,2.00
2017-09-06T02:47:03.434Z,2.40
2017-09-06T02:48:00.711Z,2.00
2017-09-06T02:48:57.971Z,2.00
2017-09-06T02:49:55.339Z,2.40
2017-09-06T02:50:52.579Z,2.40
2017-09-06T02:51:49.898Z,2.00
2017-09-06T02:52:47.116Z,2.40
2017-09-06T02:53:44.437Z,1.90
2017-09-06T02:54:41.725Z,2.60
2017-09-06T02:55:38.986Z,2.10
2017-09-06T02:56:36.254Z,2.30
2017-09-06T02:57:33.553Z,2.00
2017-09-06T02:58:30.816Z,1.80
2017-09-06T02:59:28.115Z,2.40
2017-09-06T03:00:25.371Z,2.10
2017-09-06T03:01:22.651Z,2.20
2017-09-06T03:02:19.915Z,1.90
2017-09-06T03:03:17.189Z,2.30
2017-09-06T03:04:14.445Z,2.20
2017-09-06T03:05:11.742Z,2.40
2017-09-06T03:06:08.993Z,2.20
2017-09-06T03:07:06.296Z,2.30
2017-09-06T03:08:03.570Z,1.90
2017-09-06T03:09:00.883Z,1.90
2017-09-06T03:09:58.126Z,2.10
2017-09-06T03:10:55.438Z,2.10
2017-09-06T03:11:52.738Z,2.60
2017-09-06T03:12:50.104Z,1.90
2017-09-06T03:13:47.437Z,1.80
2017-09-06T03:14:44.783Z,2.20
2017-09-06T03:15:42.094Z,2.90
2017-09-06T03:16:39.614Z,2.60
2017-09-06T03:17:36.906Z,2.40
2017-09-06T03:18:34.192Z,2.20
2017-09-06T03:19:31.437Z,2.40
2017-09-06T03:20:28.725Z,2.50
2017-09-06T03:21:25.981Z,2.50
2017-09-06T03:22:23.257Z,2.40
2017-09-06T03:23:20.527Z,2.50
2017-09-06T03:24:17.870Z,2.40
2017-09-06T03:25:15.146Z,2.10
2017-09-06T03:26:12.431Z,2.30
2017-09-06T03:27:09.753Z,2.00
2017-09-06T03:28:07.054Z,2.20
2017-09-06T03:29:04.332Z,2.40
2017-09-06T03:30:01.627Z,2.20
2017-09-06T03:30:58.887Z,1.90
2017-09-06T03:31:56.194Z,2.10
2017-09-06T03:32:53.462Z,2.70
2017-09-06T03:33:50.742Z,2.10
2017-09-06T03:34:48.019Z,2.00
2017-09-06T03:35:45.417Z,2.30
2017-09-06T03:36:42.738Z,2.00
2017-09-06T03:37:40.018Z,2.60
2017-09-06T03:38:37.309Z,2.10
2017-09-06T03:39:34.595Z,2.30
2017-09-06T03:40:31.965Z,1.90
2017-09-06T03:41:29.251Z,1.90
2017-09-06T03:42:26.501Z,1.80
2017-09-06T03:43:24.311Z,2.20
2017-09-06T03:44:21.562Z,2.00
2017-09-06T03:45:18.916Z,2.10
2017-09-06T03:46:16.227Z,1.90
2017-09-06T03:47:13.514Z,1.90
2017-09-06T03:48:10.758Z,1.70
2017-09-06T03:49:08.101Z,1.60
2017-09-06T03:50:05.493Z,1.60
2017-09-06T03:51:02.750Z,1.30
2017-09-06T03:52:00.014Z,1.40
2017-09-06T03:52:57.293Z,1.80
2017-09-06T03:53:54.572Z,1.40
2017-09-06T03:54:51.852Z,1.70
2017-09-06T03:55:49.154Z,1.70
2017-09-06T03:56:46.475Z,1.50
2017-09-06T03:57:43.745Z,1.70
2017-09-06T03:58:41.058Z,1.80
2017-09-06T03:59:38.325Z,1.90
2017-09-06T04:00:35.614Z,1.70
2017-09-06T04:01:33.419Z,1.80
2017-09-06T04:02:30.690Z,1.40
2017-09-06T04:03:27.950Z,1.50
2017-09-06T04:04:25.239Z,1.80
2017-09-06T04:05:22.574Z,1.50
2017-09-06T04:06:19.866Z,1.50
2017-09-06T04:07:17.105Z,1.80
2017-09-06T04:08:14.450Z,1.50
2017-09-06T04:09:11.718Z,1.60
2017-09-06T04:10:08.995Z,2.10
2017-09-06T04:11:06.253Z,1.60
2017-09-06T04:12:03.534Z,1.70
2017-09-06T04:13:00.782Z,2.00
2017-09-06T04:13:58.104Z,1.70
2017-09-06T04:14:55.362Z,1.60
2017-09-06T04:15:52.628Z,1.80
2017-09-06T04:16:49.878Z,1.90
2017-09-06T04:17:47.146Z,1.60
2017-09-06T04:18:44.414Z,1.50
2017-09-06T04:19:41.704Z,1.80
2017-09-06T04:20:38.969Z,1.70
2017-09-06T04:21:36.387Z,1.80
2017-09-06T04:22:33.626Z,1.70
2017-09-06T04:23:31.136Z,2.10
2017-09-06T04:24:28.469Z,1.70
2017-09-06T04:25:25.740Z,1.90
2017-09-06T04:26:23.946Z,2.20
2017-09-06T04:27:21.209Z,1.60
2017-09-06T04:28:18.465Z,2.30
2017-09-06T04:29:15.741Z,2.10
2017-09-06T04:30:13.002Z,2.20
2017-09-06T04:31:10.298Z,2.40
2017-09-06T04:32:07.546Z,2.00
2017-09-06T04:33:04.824Z,1.90
2017-09-06T04:34:02.090Z,2.00
2017-09-06T04:34:59.402Z,1.80
2017-09-06T04:35:56.666Z,1.70
2017-09-06T04:36:53.947Z,1.90
2017-09-06T04:37:51.214Z,1.50
2017-09-06T04:38:48.495Z,1.50
2017-09-06T04:39:45.781Z,1.70
2017-09-06T04:40:43.052Z,1.50
2017-09-06T04:41:40.281Z,1.30
2017-09-06T04:42:37.543Z,1.30
2017-09-06T04:43:34.792Z,1.50
2017-09-06T04:44:32.063Z,1.70
2017-09-06T04:45:29.392Z,1.90
2017-09-06T04:46:26.670Z,1.40
2017-09-06T04:47:23.921Z,1.30
2017-09-06T04:48:21.221Z,1.60
2017-09-06T04:49:18.448Z,1.60
2017-09-06T04:50:21.445Z,1.40
2017-09-06T04:51:18.706Z,1.60
2017-09-06T04:52:15.974Z,1.50
2017-09-06T04:53:13.233Z,1.70
2017-09-06T04:54:10.510Z,1.60
2017-09-06T04:55:07.779Z,1.90
2017-09-06T04:56:05.066Z,1.60
2017-09-06T04:57:02.321Z,1.70
2017-09-06T04:57:59.598Z,1.70
2017-09-06T04:58:56.874Z,1.60
2017-09-06T04:59:54.150Z,1.70
2017-09-06T05:00:51.429Z,1.50
2017-09-06T05:01:48.698Z,2.70
2017-09-06T05:02:45.952Z,1.60
2017-09-06T05:03:43.233Z,1.70
2017-09-06T05:04:40.505Z,1.50
2017-09-06T05:05:37.807Z,1.70
2017-09-06T05:06:35.069Z,1.90
2017-09-06T05:07:32.338Z,1.80
2017-09-06T05:08:29.593Z,1.40
2017-09-06T05:09:26.862Z,1.60
2017-09-06T05:10:24.114Z,1.50
2017-09-06T05:11:21.421Z,1.70
2017-09-06T05:12:18.676Z,1.60
2017-09-06T05:13:15.966Z,1.30
2017-09-06T05:14:13.227Z,1.40
2017-09-06T05:15:10.502Z,1.50
2017-09-06T05:16:07.791Z,1.40
2017-09-06T05:17:05.050Z,1.60
2017-09-06T05:18:02.326Z,1.60
2017-09-06T05:18:59.601Z,1.50
2017-09-06T05:19:56.862Z,1.50
2017-09-06T05:20:54.161Z,1.40
2017-09-06T05:21:51.402Z,1.60
2017-09-06T05:22:48.665Z,1.70
2017-09-06T05:23:51.111Z,1.60
2017-09-06T05:24:48.390Z,1.70
2017-09-06T05:25:45.623Z,1.80
2017-09-06T05:26:42.918Z,1.60
2017-09-06T05:27:40.156Z,1.30
2017-09-06T05:28:37.473Z,1.40
2017-09-06T05:29:34.737Z,1.50
2017-09-06T05:30:32.026Z,1.40
2017-09-06T05:31:29.306Z,1.30
2017-09-06T05:32:26.598Z,1.60
2017-09-06T05:33:23.845Z,1.40
2017-09-06T05:34:21.110Z,1.50
2017-09-06T05:35:18.378Z,1.50
2017-09-06T05:36:15.665Z,1.40
2017-09-06T05:37:12.918Z,1.40
2017-09-06T05:38:10.841Z,1.00
2017-09-06T05:39:08.085Z,1.20
2017-09-06T05:40:05.361Z,1.30
2017-09-06T05:41:02.641Z,1.30
2017-09-06T05:41:59.927Z,1.20
2017-09-06T05:42:57.165Z,1.30
2017-09-06T05:43:54.552Z,1.50
2017-09-06T05:44:51.889Z,1.40
2017-09-06T05:45:49.166Z,1.60
2017-09-06T05:46:46.481Z,1.60
2017-09-06T05:47:43.849Z,1.50
2017-09-06T05:48:41.110Z,1.40
2017-09-06T05:49:38.394Z,1.30
2017-09-06T05:50:35.673Z,1.60
2017-09-06T05:51:32.961Z,1.00
2017-09-06T05:52:30.258Z,1.20
2017-09-06T05:53:27.630Z,1.00
2017-09-06T05:54:24.962Z,1.60
2017-09-06T05:55:22.266Z,1.90
2017-09-06T05:56:19.552Z,2.00
2017-09-06T05:57:16.880Z,2.00
2017-09-06T05:58:14.171Z,1.60
2017-09-06T05:59:11.446Z,1.60
2017-09-06T06:00:09.105Z,1.50
2017-09-06T06:01:06.379Z,1.30
2017-09-06T06:02:03.662Z,1.40
2017-09-06T06:03:00.929Z,1.20
2017-09-06T06:03:58.180Z,1.20
2017-09-06T06:04:55.458Z,1.40
2017-09-06T06:05:52.698Z,1.50
2017-09-06T06:06:49.958Z,1.10
2017-09-06T06:07:47.253Z,1.60
2017-09-06T06:08:44.545Z,1.50
2017-09-06T06:09:41.764Z,1.40
2017-09-06T06:10:39.026Z,1.50
2017-09-06T06:11:36.263Z,1.20
2017-09-06T06:12:33.569Z,1.30
2017-09-06T06:13:30.875Z,1.50
2017-09-06T06:14:28.253Z,1.20
2017-09-06T06:15:25.504Z,1.30
2017-09-06T06:16:22.779Z,1.90
2017-09-06T06:17:20.164Z,1.30
2017-09-06T06:18:17.539Z,1.30
2017-09-06T06:19:14.774Z,1.50
2017-09-06T06:20:12.063Z,1.60
2017-09-06T06:21:09.322Z,1.40
2017-09-06T06:22:06.602Z,1.70
2017-09-06T06:23:03.864Z,1.50
2017-09-06T06:24:01.137Z,1.70
2017-09-06T06:24:58.386Z,1.60
2017-09-06T06:25:55.671Z,1.60
2017-09-06T06:26:52.915Z,1.50
2017-09-06T06:27:50.201Z,1.30
2017-09-06T06:28:47.461Z,1.50
2017-09-06T06:29:44.737Z,1.80
2017-09-06T06:30:41.978Z,1.50
2017-09-06T06:31:39.243Z,1.70
2017-09-06T06:32:36.490Z,2.10
2017-09-06T06:33:33.782Z,1.70
2017-09-06T06:34:31.024Z,2.10
2017-09-06T06:35:28.294Z,1.70
2017-09-06T06:36:25.560Z,1.80
2017-09-06T06:37:22.849Z,1.80
2017-09-06T06:38:20.124Z,1.70
2017-09-06T06:39:17.415Z,1.60
2017-09-06T06:40:14.682Z,2.20
2017-09-06T06:41:11.945Z,1.70
2017-09-06T06:42:09.179Z,1.10
2017-09-06T06:43:06.445Z,1.60
2017-09-06T06:44:03.723Z,1.20
2017-09-06T06:45:00.994Z,1.50
2017-09-06T06:45:58.237Z,1.50
2017-09-06T06:46:55.497Z,2.00
2017-09-06T06:47:52.730Z,1.80
2017-09-06T06:48:50.015Z,1.60
2017-09-06T06:49:47.255Z,1.70
2017-09-06T06:50:44.509Z,1.70
2017-09-06T06:51:41.763Z,1.50
2017-09-06T06:52:39.028Z,1.30
2017-09-06T06:53:36.293Z,1.40
2017-09-06T06:54:33.558Z,1.30
2017-09-06T06:55:30.797Z,1.50
2017-09-06T06:56:28.094Z,1.50
2017-09-06T06:57:25.347Z,1.40
2017-09-06T06:58:22.613Z,1.50
2017-09-06T06:59:19.881Z,1.40
2017-09-06T07:00:17.205Z,1.50
2017-09-06T07:01:14.451Z,1.70
2017-09-06T07:02:11.707Z,1.40
2017-09-06T07:03:08.964Z,1.50
2017-09-06T07:04:06.240Z,1.90
2017-09-06T07:05:03.490Z,1.50
2017-09-06T07:06:00.750Z,1.30
2017-09-06T07:06:58.023Z,1.40
2017-09-06T07:07:55.273Z,1.50
2017-09-06T07:08:52.548Z,1.50
2017-09-06T07:09:49.805Z,1.50
2017-09-06T07:10:47.054Z,1.50
2017-09-06T07:11:44.351Z,1.50
2017-09-06T07:12:41.606Z,1.70
2017-09-06T07:13:38.922Z,1.70
2017-09-06T07:14:36.165Z,1.80
2017-09-06T07:15:33.430Z,1.70
2017-09-06T07:16:30.665Z,1.50
2017-09-06T07:17:27.949Z,1.50
2017-09-06T07:18:25.182Z,1.70
2017-09-06T07:19:22.454Z,1.80
2017-09-06T07:20:19.701Z,1.80
2017-09-06T07:21:16.954Z,2.40
2017-09-06T07:22:14.218Z,2.30
2017-09-06T07:23:11.502Z,2.60
2017-09-06T07:24:08.766Z,2.20
2017-09-06T07:25:06.069Z,2.30
2017-09-06T07:26:03.335Z,2.00
2017-09-06T07:27:00.622Z,1.40
2017-09-06T07:27:57.881Z,2.10
2017-09-06T07:28:55.161Z,2.30
2017-09-06T07:29:52.422Z,1.60
2017-09-06T07:30:49.678Z,1.70
2017-09-06T07:31:46.937Z,1.80
2017-09-06T07:32:44.260Z,2.10
2017-09-06T07:33:41.493Z,2.20
2017-09-06T07:34:38.750Z,1.80
2017-09-06T07:35:36.082Z,1.90
2017-09-06T07:36:33.354Z,2.40
2017-09-06T07:37:30.599Z,2.10
2017-09-06T07:38:27.853Z,2.10
2017-09-06T07:39:25.124Z,2.20
2017-09-06T07:40:22.449Z,2.00
2017-09-06T07:41:19.726Z,2.00
2017-09-06T07:42:16.998Z,1.70
2017-09-06T07:43:14.255Z,1.60
2017-09-06T07:44:11.547Z,2.00
2017-09-06T07:45:09.010Z,1.80
2017-09-06T07:46:06.329Z,1.90
2017-09-06T07:47:03.680Z,2.10
2017-09-06T07:48:00.959Z,1.70
2017-09-06T07:48:58.224Z,1.70
2017-09-06T07:49:55.497Z,1.80
2017-09-06T07:50:52.787Z,1.90
2017-09-06T07:51:50.090Z,2.00
2017-09-06T07:52:47.353Z,1.90
2017-09-06T07:53:44.625Z,1.80
2017-09-06T07:54:41.908Z,2.20
2017-09-06T07:55:39.252Z,1.70
2017-09-06T07:56:36.531Z,2.00
2017-09-06T07:57:34.031Z,1.80
2017-09-06T07:58:31.522Z,2.10
2017-09-06T07:59:28.802Z,1.90
2017-09-06T08:00:26.082Z,1.70
2017-09-06T08:01:23.354Z,2.30
2017-09-06T08:02:20.617Z,2.10
2017-09-06T08:03:17.951Z,1.90
2017-09-06T08:04:15.225Z,2.50
2017-09-06T08:05:12.514Z,2.60
2017-09-06T08:06:09.763Z,1.40
2017-09-06T08:07:07.036Z,1.60
2017-09-06T08:08:04.302Z,1.70
2017-09-06T08:09:02.638Z,1.80
2017-09-06T08:10:00.005Z,2.30
2017-09-06T08:10:57.329Z,2.10
2017-09-06T08:11:54.602Z,1.80
2017-09-06T08:12:51.884Z,1.90
2017-09-06T08:13:49.191Z,1.80
2017-09-06T08:14:46.483Z,1.80
2017-09-06T08:15:43.757Z,1.90
2017-09-06T08:16:41.051Z,2.20
2017-09-06T08:17:38.322Z,2.50
2017-09-06T08:18:35.615Z,2.80
2017-09-06T08:19:32.880Z,1.90
2017-09-06T08:20:30.158Z,2.20
2017-09-06T08:21:27.418Z,2.10
2017-09-06T08:22:24.730Z,2.30
2017-09-06T08:23:21.979Z,2.10
2017-09-06T08:24:19.278Z,2.50
2017-09-06T08:25:16.542Z,1.90
2017-09-06T08:26:13.866Z,2.20
2017-09-06T08:27:11.126Z,1.90
2017-09-06T08:28:08.406Z,2.20
2017-09-06T08:29:05.665Z,2.20
2017-09-06T08:30:02.966Z,2.70
2017-09-06T08:31:00.243Z,2.40
2017-09-06T08:31:57.523Z,2.40
2017-09-06T08:32:54.769Z,2.90
2017-09-06T08:33:52.050Z,2.80
2017-09-06T08:34:49.317Z,2.90
2017-09-06T08:35:46.590Z,2.50
2017-09-06T08:36:43.864Z,2.50
2017-09-06T08:37:41.165Z,2.90
2017-09-06T08:38:38.422Z,2.40
2017-09-06T08:39:35.720Z,2.40
2017-09-06T08:40:32.990Z,3.60
2017-09-06T08:41:30.283Z,3.10
2017-09-06T08:42:27.565Z,2.20
2017-09-06T08:43:24.857Z,2.90
2017-09-06T08:44:22.098Z,2.70
2017-09-06T08:45:19.375Z,3.60
2017-09-06T08:46:16.641Z,2.70
2017-09-06T08:47:13.933Z,3.00
2017-09-06T08:48:11.193Z,3.00
2017-09-06T08:49:08.482Z,2.70
2017-09-06T08:50:05.729Z,3.30
2017-09-06T08:51:03.235Z,2.80
2017-09-06T08:52:00.511Z,2.70
2017-09-06T08:52:57.814Z,2.90
2017-09-06T08:53:55.050Z,2.70
2017-09-06T08:54:52.345Z,3.40
2017-09-06T08:55:49.588Z,2.50
2017-09-06T08:56:46.862Z,3.60
2017-09-06T08:57:44.134Z,3.30
2017-09-06T08:58:41.396Z,3.20
2017-09-06T08:59:38.641Z,3.00
2017-09-06T09:00:35.905Z,2.80
2017-09-06T09:01:33.199Z,2.80
2017-09-06T09:02:30.514Z,3.60
2017-09-06T09:03:27.756Z,2.90
2017-09-06T09:04:25.069Z,2.90
2017-09-06T09:05:22.334Z,2.80
2017-09-06T09:06:19.619Z,2.70
2017-09-06T09:07:16.926Z,3.00
2017-09-06T09:08:14.625Z,3.10
2017-09-06T09:09:11.894Z,2.60
2017-09-06T09:10:09.154Z,3.50
2017-09-06T09:11:06.404Z,3.20
2017-09-06T09:12:03.745Z,3.10
2017-09-06T09:13:01.014Z,3.10
2017-09-06T09:13:58.325Z,3.00
2017-09-06T09:14:55.601Z,3.60
2017-09-06T09:15:52.919Z,3.00
2017-09-06T09:16:50.160Z,3.30
2017-09-06T09:17:47.458Z,2.90
2017-09-06T09:18:45.367Z,3.20
2017-09-06T09:19:42.730Z,2.70
2017-09-06T09:20:39.978Z,3.00
2017-09-06T09:21:37.275Z,2.60
2017-09-06T09:22:34.571Z,3.50
2017-09-06T09:23:31.877Z,3.20
2017-09-06T09:24:29.142Z,2.90
2017-09-06T09:25:26.498Z,2.80
2017-09-06T09:26:23.805Z,2.60
2017-09-06T09:27:21.149Z,3.10
2017-09-06T09:28:18.430Z,2.60
2017-09-06T09:29:15.734Z,3.50
2017-09-06T09:30:12.993Z,2.80
2017-09-06T09:31:10.335Z,2.50
2017-09-06T09:32:07.641Z,2.40
2017-09-06T09:33:04.963Z,2.60
2017-09-06T09:34:02.257Z,2.70
2017-09-06T09:34:59.581Z,2.70
2017-09-06T09:35:57.394Z,3.10
2017-09-06T09:36:54.708Z,3.10
2017-09-06T09:37:51.973Z,2.80
2017-09-06T09:38:49.278Z,3.10
2017-09-06T09:39:46.546Z,2.90
2017-09-06T09:40:43.837Z,3.30
2017-09-06T09:41:41.105Z,3.20
2017-09-06T09:42:38.391Z,3.10
2017-09-06T09:43:35.727Z,2.70
2017-09-06T09:44:33.009Z,2.50
2017-09-06T09:45:30.301Z,2.50
2017-09-06T09:46:27.595Z,2.80
2017-09-06T09:47:24.872Z,2.10
2017-09-06T09:48:22.207Z,2.80
2017-09-06T09:49:19.483Z,2.50
2017-09-06T09:50:16.769Z,3.60
2017-09-06T09:51:14.073Z,3.50
2017-09-06T09:52:11.379Z,2.60
2017-09-06T09:53:08.629Z,2.80
2017-09-06T09:54:05.986Z,2.90
2017-09-06T09:55:03.241Z,2.50
2017-09-06T09:56:00.515Z,3.00
2017-09-06T09:56:59.204Z,2.40
2017-09-06T09:57:56.494Z,2.00
2017-09-06T09:58:53.808Z,2.40
2017-09-06T09:59:51.129Z,2.60
2017-09-06T10:00:48.419Z,2.90
2017-09-06T10:01:45.727Z,2.50
2017-09-06T10:02:43.013Z,2.80
2017-09-06T10:03:40.364Z,2.80
2017-09-06T10:04:39.266Z,2.10
2017-09-06T10:05:36.586Z,2.50
2017-09-06T10:06:33.895Z,2.30
2017-09-06T10:07:31.154Z,2.80
2017-09-06T10:08:28.412Z,2.10
2017-09-06T10:09:25.721Z,2.50
2017-09-06T10:10:23.010Z,2.50
2017-09-06T10:11:20.311Z,2.30
2017-09-06T10:12:17.632Z,2.20
2017-09-06T10:13:14.928Z,3.00
2017-09-06T10:14:12.229Z,2.30
2017-09-06T10:15:09.514Z,2.50
2017-09-06T10:16:06.797Z,2.70
2017-09-06T10:17:04.074Z,2.60
2017-09-06T10:18:01.329Z,2.40
2017-09-06T10:18:58.694Z,2.60
2017-09-06T10:19:56.074Z,2.20
2017-09-06T10:20:53.338Z,2.60
2017-09-06T10:21:50.598Z,2.70
2017-09-06T10:22:47.977Z,2.00
2017-09-06T10:23:45.254Z,2.70
2017-09-06T10:24:42.562Z,2.40
2017-09-06T10:25:39.834Z,2.20
2017-09-06T10:26:37.122Z,2.40
2017-09-06T10:27:34.415Z,3.00
2017-09-06T10:28:31.753Z,2.20
2017-09-06T10:29:29.081Z,2.20
2017-09-06T10:30:26.501Z,2.00
2017-09-06T10:31:23.790Z,2.50
2017-09-06T10:32:21.078Z,2.50
2017-09-06T10:33:18.386Z,2.40
2017-09-06T10:34:15.691Z,2.70
2017-09-06T10:35:12.993Z,2.30
2017-09-06T10:36:10.346Z,2.30
2017-09-06T10:37:07.622Z,2.50
2017-09-06T10:38:04.959Z,2.60
2017-09-06T10:39:02.236Z,2.40
2017-09-06T10:39:59.639Z,2.20
2017-09-06T10:40:56.924Z,2.40
2017-09-06T10:41:54.239Z,2.50
2017-09-06T10:42:51.511Z,2.20
2017-09-06T10:43:48.845Z,2.70
2017-09-06T10:44:46.162Z,2.40
2017-09-06T10:45:43.477Z,2.20
2017-09-06T10:46:40.762Z,2.40
2017-09-06T10:47:38.117Z,2.40
2017-09-06T10:48:35.399Z,2.60
2017-09-06T10:49:32.675Z,2.30
2017-09-06T10:50:29.977Z,2.20
2017-09-06T10:51:27.265Z,2.30
2017-09-06T10:52:24.553Z,2.50
2017-09-06T10:53:21.847Z,2.50
2017-09-06T10:54:19.113Z,2.10
2017-09-06T10:55:16.402Z,2.30
2017-09-06T10:56:13.680Z,2.40
2017-09-06T10:57:10.957Z,2.50
2017-09-06T10:58:08.259Z,2.80
2017-09-06T10:59:05.533Z,2.10
2017-09-06T11:00:02.770Z,2.70
2017-09-06T11:01:00.086Z,2.40
2017-09-06T11:01:57.329Z,2.20
2017-09-06T11:02:54.625Z,2.40
2017-09-06T11:03:51.893Z,2.20
2017-09-06T11:04:49.186Z,2.20
2017-09-06T11:05:46.463Z,2.10
2017-09-06T11:06:43.743Z,2.30
2017-09-06T11:07:41.011Z,2.80
2017-09-06T11:08:38.311Z,1.90
2017-09-06T11:09:35.557Z,2.90
2017-09-06T11:10:32.883Z,3.30
2017-09-06T11:11:30.213Z,2.50
2017-09-06T11:12:27.501Z,2.60
2017-09-06T11:13:24.778Z,3.00
2017-09-06T11:14:22.050Z,2.40
2017-09-06T11:15:19.310Z,1.90
2017-09-06T11:16:16.640Z,2.20
2017-09-06T11:17:13.940Z,2.30
2017-09-06T11:18:11.266Z,2.60
2017-09-06T11:19:08.524Z,3.10
2017-09-06T11:20:05.852Z,2.60
2017-09-06T11:21:03.158Z,2.70
2017-09-06T11:22:00.467Z,2.30
2017-09-06T11:22:57.703Z,1.90
2017-09-06T11:23:55.019Z,2.30
2017-09-06T11:24:52.330Z,2.80
2017-09-06T11:25:49.604Z,2.20
2017-09-06T11:26:46.934Z,2.30
2017-09-06T11:27:44.227Z,2.50
2017-09-06T11:28:41.478Z,1.90
2017-09-06T11:29:38.748Z,2.70
2017-09-06T11:30:36.028Z,1.90
2017-09-06T11:31:33.318Z,1.80
2017-09-06T11:32:30.570Z,2.20
2017-09-06T11:33:27.838Z,2.70
2017-09-06T11:34:25.105Z,2.20
2017-09-06T11:35:22.382Z,2.70
2017-09-06T11:36:19.621Z,2.10
2017-09-06T11:37:16.966Z,1.80
2017-09-06T11:38:14.546Z,1.70
2017-09-06T11:39:11.830Z,1.90
2017-09-06T11:40:09.103Z,2.30
2017-09-06T11:41:06.500Z,2.30
2017-09-06T11:42:03.834Z,3.20
2017-09-06T11:43:01.154Z,2.20
2017-09-06T11:43:58.406Z,2.40
2017-09-06T11:44:55.780Z,2.30
2017-09-06T11:45:53.067Z,2.20
2017-09-06T11:46:50.376Z,2.20
2017-09-06T11:47:47.720Z,2.40
2017-09-06T11:48:45.074Z,2.60
2017-09-06T11:49:42.350Z,2.40
2017-09-06T11:50:39.645Z,2.20
2017-09-06T11:51:38.974Z,2.00
2017-09-06T11:52:36.279Z,2.80
2017-09-06T11:53:33.560Z,2.60
2017-09-06T11:54:30.823Z,2.60
2017-09-06T11:55:28.100Z,2.20
2017-09-06T11:56:25.426Z,2.10
2017-09-06T11:57:22.732Z,1.90
2017-09-06T11:58:20.086Z,2.00
2017-09-06T11:59:17.366Z,2.80
2017-09-06T12:00:14.688Z,2.10
2017-09-06T12:01:11.966Z,2.50
2017-09-06T12:02:09.275Z,2.10
2017-09-06T12:03:06.530Z,2.20
2017-09-06T12:04:03.830Z,2.00
2017-09-06T12:05:01.175Z,2.40
2017-09-06T12:05:58.488Z,1.80
2017-09-06T12:06:55.782Z,1.90
2017-09-06T12:07:55.173Z,2.50
2017-09-06T12:08:52.433Z,1.90
2017-09-06T12:09:49.757Z,2.20
2017-09-06T12:10:47.110Z,1.60
2017-09-06T12:11:44.473Z,2.00
2017-09-06T12:12:41.902Z,1.90
2017-09-06T12:13:39.214Z,1.60
2017-09-06T12:14:36.565Z,2.20
2017-09-06T12:15:33.853Z,2.00
2017-09-06T12:16:31.133Z,2.00
2017-09-06T12:17:28.487Z,2.20
2017-09-06T12:18:25.958Z,2.20
2017-09-06T12:19:23.328Z,2.40
2017-09-06T12:20:20.608Z,2.20
2017-09-06T12:21:17.939Z,2.50
2017-09-06T12:22:15.262Z,1.80
2017-09-06T12:23:12.626Z,2.20
2017-09-06T12:24:09.916Z,1.70
2017-09-06T12:25:07.751Z,1.70
2017-09-06T12:26:05.030Z,2.30
2017-09-06T12:27:02.365Z,2.10
2017-09-06T12:27:59.706Z,2.30
2017-09-06T12:28:56.970Z,1.90
2017-09-06T12:29:54.252Z,2.30
2017-09-06T12:30:51.575Z,2.00
2017-09-06T12:31:48.851Z,2.00
2017-09-06T12:32:46.118Z,2.90
2017-09-06T12:33:43.470Z,2.60
2017-09-06T12:34:40.818Z,1.80
2017-09-06T12:35:38.186Z,1.80
2017-09-06T12:36:35.481Z,2.60
2017-09-06T12:37:32.774Z,2.20
2017-09-06T12:38:30.087Z,2.00
2017-09-06T12:39:27.360Z,2.20
2017-09-06T12:40:24.649Z,2.10
2017-09-06T12:41:21.918Z,2.40
2017-09-06T12:42:19.202Z,1.60
2017-09-06T12:43:16.481Z,1.60